sensor_id;sensor_type;location;lat;lon;timestamp;P1;durP1;ratioP1;P2;durP2;ratioP2
52318;SDS011;38258;51.148;14.068;2023-08-01T00:02:23;5.13;;;2.92;;
52318;SDS011;38258;51.148;14.068;2023-08-01T00:04:50;5.05;;;2.78;;
52318;SDS011;38258;51.148;14.068;2023-08-01T00:07:18;5.53;;;3.25;;
52318;SDS011;38258;51.148;14.068;2023-08-01T00:09:45;6.97;;;3.00;;
52318;SDS011;38258;51.148;14.068;2023-08-01T00:12:12;6.20;;;3.00;;
52318;SDS011;38258;51.148;14.068;2023-08-01T00:14:38;7.53;;;3.20;;
52318;SDS011;38258;51.148;14.068;2023-08-01T00:17:05;6.55;;;2.85;;
52318;SDS011;38258;51.148;14.068;2023-08-01T00:19:32;4.43;;;3.10;;
52318;SDS011;38258;51.148;14.068;2023-08-01T00:21:59;5.05;;;3.08;;
52318;SDS011;38258;51.148;14.068;2023-08-01T00:24:27;6.50;;;3.20;;
52318;SDS011;38258;51.148;14.068;2023-08-01T00:26:54;5.53;;;3.65;;
52318;SDS011;38258;51.148;14.068;2023-08-01T00:29:21;5.38;;;3.05;;
52318;SDS011;38258;51.148;14.068;2023-08-01T00:31:49;5.60;;;3.20;;
52318;SDS011;38258;51.148;14.068;2023-08-01T00:34:16;5.38;;;3.17;;
52318;SDS011;38258;51.148;14.068;2023-08-01T00:36:43;5.85;;;3.40;;
52318;SDS011;38258;51.148;14.068;2023-08-01T00:39:09;7.22;;;3.33;;
52318;SDS011;38258;51.148;14.068;2023-08-01T00:41:37;5.72;;;2.97;;
52318;SDS011;38258;51.148;14.068;2023-08-01T00:44:04;6.72;;;3.55;;
52318;SDS011;38258;51.148;14.068;2023-08-01T00:46:32;7.28;;;3.08;;
52318;SDS011;38258;51.148;14.068;2023-08-01T00:48:59;5.70;;;3.20;;
52318;SDS011;38258;51.148;14.068;2023-08-01T00:51:25;7.20;;;3.60;;
52318;SDS011;38258;51.148;14.068;2023-08-01T00:53:53;5.65;;;3.50;;
52318;SDS011;38258;51.148;14.068;2023-08-01T00:56:20;5.72;;;3.45;;
52318;SDS011;38258;51.148;14.068;2023-08-01T00:58:48;6.43;;;3.38;;
52318;SDS011;38258;51.148;14.068;2023-08-01T01:01:15;7.28;;;3.55;;
52318;SDS011;38258;51.148;14.068;2023-08-01T01:03:41;7.75;;;3.75;;
52318;SDS011;38258;51.148;14.068;2023-08-01T01:06:09;8.18;;;3.58;;
52318;SDS011;38258;51.148;14.068;2023-08-01T01:08:42;6.82;;;3.78;;
52318;SDS011;38258;51.148;14.068;2023-08-01T01:11:09;10.40;;;4.60;;
52318;SDS011;38258;51.148;14.068;2023-08-01T01:13:35;7.75;;;3.70;;
52318;SDS011;38258;51.148;14.068;2023-08-01T01:16:04;6.13;;;4.10;;
52318;SDS011;38258;51.148;14.068;2023-08-01T01:18:30;8.02;;;4.03;;
52318;SDS011;38258;51.148;14.068;2023-08-01T01:20:59;11.02;;;4.53;;
52318;SDS011;38258;51.148;14.068;2023-08-01T01:23:25;7.75;;;4.28;;
52318;SDS011;38258;51.148;14.068;2023-08-01T01:25:53;10.05;;;4.25;;
52318;SDS011;38258;51.148;14.068;2023-08-01T01:28:22;8.57;;;4.50;;
52318;SDS011;38258;51.148;14.068;2023-08-01T01:30:50;8.88;;;4.63;;
52318;SDS011;38258;51.148;14.068;2023-08-01T01:33:19;7.60;;;4.43;;
52318;SDS011;38258;51.148;14.068;2023-08-01T01:35:46;10.32;;;4.85;;
52318;SDS011;38258;51.148;14.068;2023-08-01T01:38:15;8.05;;;4.03;;
52318;SDS011;38258;51.148;14.068;2023-08-01T01:40:42;11.82;;;4.85;;
52318;SDS011;38258;51.148;14.068;2023-08-01T01:43:09;7.65;;;4.70;;
52318;SDS011;38258;51.148;14.068;2023-08-01T01:45:36;7.80;;;4.38;;
52318;SDS011;38258;51.148;14.068;2023-08-01T01:48:03;9.52;;;4.43;;
52318;SDS011;38258;51.148;14.068;2023-08-01T01:50:29;8.18;;;4.68;;
52318;SDS011;38258;51.148;14.068;2023-08-01T01:52:56;7.03;;;4.40;;
52318;SDS011;38258;51.148;14.068;2023-08-01T01:55:24;10.32;;;4.60;;
52318;SDS011;38258;51.148;14.068;2023-08-01T01:57:51;7.95;;;4.35;;
52318;SDS011;38258;51.148;14.068;2023-08-01T02:00:18;8.90;;;4.47;;
52318;SDS011;38258;51.148;14.068;2023-08-01T02:02:45;9.48;;;4.40;;
52318;SDS011;38258;51.148;14.068;2023-08-01T02:05:11;7.68;;;3.72;;
52318;SDS011;38258;51.148;14.068;2023-08-01T02:07:39;6.97;;;4.05;;
52318;SDS011;38258;51.148;14.068;2023-08-01T02:10:06;6.55;;;3.83;;
52318;SDS011;38258;51.148;14.068;2023-08-01T02:12:36;6.22;;;3.60;;
52318;SDS011;38258;51.148;14.068;2023-08-01T02:15:03;10.00;;;4.40;;
52318;SDS011;38258;51.148;14.068;2023-08-01T02:17:31;6.82;;;3.85;;
52318;SDS011;38258;51.148;14.068;2023-08-01T02:19:58;7.25;;;4.28;;
52318;SDS011;38258;51.148;14.068;2023-08-01T02:22:24;7.70;;;3.90;;
52318;SDS011;38258;51.148;14.068;2023-08-01T02:24:51;8.77;;;4.10;;
52318;SDS011;38258;51.148;14.068;2023-08-01T02:27:19;9.52;;;4.35;;
52318;SDS011;38258;51.148;14.068;2023-08-01T02:29:47;8.38;;;4.47;;
52318;SDS011;38258;51.148;14.068;2023-08-01T02:32:15;8.68;;;4.22;;
52318;SDS011;38258;51.148;14.068;2023-08-01T02:34:42;6.30;;;3.95;;
52318;SDS011;38258;51.148;14.068;2023-08-01T02:37:09;8.43;;;4.60;;
52318;SDS011;38258;51.148;14.068;2023-08-01T02:39:36;7.00;;;4.35;;
52318;SDS011;38258;51.148;14.068;2023-08-01T02:42:03;6.57;;;3.78;;
52318;SDS011;38258;51.148;14.068;2023-08-01T02:44:29;7.32;;;3.97;;
52318;SDS011;38258;51.148;14.068;2023-08-01T02:46:58;7.47;;;4.22;;
52318;SDS011;38258;51.148;14.068;2023-08-01T02:49:24;6.85;;;3.60;;
52318;SDS011;38258;51.148;14.068;2023-08-01T02:51:51;7.05;;;4.05;;
52318;SDS011;38258;51.148;14.068;2023-08-01T02:54:18;7.57;;;3.90;;
52318;SDS011;38258;51.148;14.068;2023-08-01T02:56:45;6.78;;;3.55;;
52318;SDS011;38258;51.148;14.068;2023-08-01T02:59:12;8.93;;;4.55;;
52318;SDS011;38258;51.148;14.068;2023-08-01T03:01:38;8.35;;;4.05;;
52318;SDS011;38258;51.148;14.068;2023-08-01T03:04:07;7.00;;;3.72;;
52318;SDS011;38258;51.148;14.068;2023-08-01T03:06:33;6.38;;;3.47;;
52318;SDS011;38258;51.148;14.068;2023-08-01T03:09:00;6.72;;;3.60;;
52318;SDS011;38258;51.148;14.068;2023-08-01T03:11:27;5.63;;;3.80;;
52318;SDS011;38258;51.148;14.068;2023-08-01T03:13:54;8.13;;;4.25;;
52318;SDS011;38258;51.148;14.068;2023-08-01T03:16:21;8.25;;;4.22;;
52318;SDS011;38258;51.148;14.068;2023-08-01T03:18:48;6.95;;;4.15;;
52318;SDS011;38258;51.148;14.068;2023-08-01T03:21:16;7.57;;;4.20;;
52318;SDS011;38258;51.148;14.068;2023-08-01T03:23:43;7.80;;;4.20;;
52318;SDS011;38258;51.148;14.068;2023-08-01T03:26:10;8.80;;;4.65;;
52318;SDS011;38258;51.148;14.068;2023-08-01T03:28:37;9.50;;;4.50;;
52318;SDS011;38258;51.148;14.068;2023-08-01T03:31:05;8.13;;;4.85;;
52318;SDS011;38258;51.148;14.068;2023-08-01T03:33:32;7.22;;;4.57;;
52318;SDS011;38258;51.148;14.068;2023-08-01T03:35:59;8.55;;;4.47;;
52318;SDS011;38258;51.148;14.068;2023-08-01T03:38:27;7.05;;;4.80;;
52318;SDS011;38258;51.148;14.068;2023-08-01T03:40:54;8.98;;;4.60;;
52318;SDS011;38258;51.148;14.068;2023-08-01T03:43:21;7.40;;;4.47;;
52318;SDS011;38258;51.148;14.068;2023-08-01T03:45:49;8.43;;;5.20;;
52318;SDS011;38258;51.148;14.068;2023-08-01T03:48:15;10.95;;;4.85;;
52318;SDS011;38258;51.148;14.068;2023-08-01T03:50:43;10.60;;;5.00;;
52318;SDS011;38258;51.148;14.068;2023-08-01T03:53:09;8.73;;;5.25;;
52318;SDS011;38258;51.148;14.068;2023-08-01T03:55:38;8.27;;;5.10;;
52318;SDS011;38258;51.148;14.068;2023-08-01T03:58:04;9.45;;;5.10;;
52318;SDS011;38258;51.148;14.068;2023-08-01T04:00:31;8.70;;;4.93;;
52318;SDS011;38258;51.148;14.068;2023-08-01T04:02:59;7.43;;;4.32;;
52318;SDS011;38258;51.148;14.068;2023-08-01T04:05:26;9.48;;;4.90;;
52318;SDS011;38258;51.148;14.068;2023-08-01T04:07:53;8.95;;;4.95;;
52318;SDS011;38258;51.148;14.068;2023-08-01T04:10:21;10.02;;;5.55;;
52318;SDS011;38258;51.148;14.068;2023-08-01T04:12:49;8.25;;;4.97;;
52318;SDS011;38258;51.148;14.068;2023-08-01T04:15:16;7.93;;;5.57;;
52318;SDS011;38258;51.148;14.068;2023-08-01T04:17:44;9.23;;;5.85;;
52318;SDS011;38258;51.148;14.068;2023-08-01T04:20:10;9.50;;;5.53;;
52318;SDS011;38258;51.148;14.068;2023-08-01T04:22:37;9.48;;;6.07;;
52318;SDS011;38258;51.148;14.068;2023-08-01T04:25:04;7.43;;;5.18;;
52318;SDS011;38258;51.148;14.068;2023-08-01T04:27:31;10.05;;;5.40;;
52318;SDS011;38258;51.148;14.068;2023-08-01T04:29:59;10.88;;;6.10;;
52318;SDS011;38258;51.148;14.068;2023-08-01T04:32:26;8.95;;;5.97;;
52318;SDS011;38258;51.148;14.068;2023-08-01T04:34:53;9.75;;;5.93;;
52318;SDS011;38258;51.148;14.068;2023-08-01T04:37:20;9.95;;;6.93;;
52318;SDS011;38258;51.148;14.068;2023-08-01T04:39:48;8.98;;;5.97;;
52318;SDS011;38258;51.148;14.068;2023-08-01T04:42:15;10.52;;;6.00;;
52318;SDS011;38258;51.148;14.068;2023-08-01T04:44:41;9.30;;;6.35;;
52318;SDS011;38258;51.148;14.068;2023-08-01T04:47:10;11.63;;;6.25;;
52318;SDS011;38258;51.148;14.068;2023-08-01T04:49:37;9.50;;;5.82;;
52318;SDS011;38258;51.148;14.068;2023-08-01T04:52:04;10.52;;;6.38;;
52318;SDS011;38258;51.148;14.068;2023-08-01T04:54:31;9.27;;;6.00;;
52318;SDS011;38258;51.148;14.068;2023-08-01T04:56:58;9.38;;;6.15;;
52318;SDS011;38258;51.148;14.068;2023-08-01T04:59:25;10.55;;;6.22;;
52318;SDS011;38258;51.148;14.068;2023-08-01T05:01:51;8.60;;;6.05;;
52318;SDS011;38258;51.148;14.068;2023-08-01T05:04:20;9.60;;;5.68;;
52318;SDS011;38258;51.148;14.068;2023-08-01T05:06:47;11.18;;;6.18;;
52318;SDS011;38258;51.148;14.068;2023-08-01T05:09:13;9.95;;;6.15;;
52318;SDS011;38258;51.148;14.068;2023-08-01T05:11:40;9.68;;;6.55;;
52318;SDS011;38258;51.148;14.068;2023-08-01T05:14:07;11.38;;;6.50;;
52318;SDS011;38258;51.148;14.068;2023-08-01T05:16:34;8.48;;;6.20;;
52318;SDS011;38258;51.148;14.068;2023-08-01T05:19:00;9.98;;;6.20;;
52318;SDS011;38258;51.148;14.068;2023-08-01T05:21:28;9.05;;;6.07;;
52318;SDS011;38258;51.148;14.068;2023-08-01T05:23:55;10.68;;;6.40;;
52318;SDS011;38258;51.148;14.068;2023-08-01T05:26:22;9.52;;;6.60;;
52318;SDS011;38258;51.148;14.068;2023-08-01T05:28:49;9.18;;;6.07;;
52318;SDS011;38258;51.148;14.068;2023-08-01T05:31:15;9.10;;;6.40;;
52318;SDS011;38258;51.148;14.068;2023-08-01T05:33:42;9.05;;;5.93;;
52318;SDS011;38258;51.148;14.068;2023-08-01T05:36:09;8.10;;;5.35;;
52318;SDS011;38258;51.148;14.068;2023-08-01T05:38:37;7.55;;;5.18;;
52318;SDS011;38258;51.148;14.068;2023-08-01T05:41:07;6.97;;;5.68;;
52318;SDS011;38258;51.148;14.068;2023-08-01T05:43:42;7.85;;;5.30;;
52318;SDS011;38258;51.148;14.068;2023-08-01T05:46:15;9.02;;;5.28;;
52318;SDS011;38258;51.148;14.068;2023-08-01T05:48:42;8.23;;;5.20;;
52318;SDS011;38258;51.148;14.068;2023-08-01T05:51:09;6.45;;;4.85;;
52318;SDS011;38258;51.148;14.068;2023-08-01T05:53:37;7.90;;;5.47;;
52318;SDS011;38258;51.148;14.068;2023-08-01T05:56:04;7.40;;;5.22;;
52318;SDS011;38258;51.148;14.068;2023-08-01T05:58:31;9.07;;;5.53;;
52318;SDS011;38258;51.148;14.068;2023-08-01T06:00:57;7.63;;;5.10;;
52318;SDS011;38258;51.148;14.068;2023-08-01T06:03:24;8.50;;;4.93;;
52318;SDS011;38258;51.148;14.068;2023-08-01T06:05:51;6.95;;;5.00;;
52318;SDS011;38258;51.148;14.068;2023-08-01T06:08:18;7.80;;;4.97;;
52318;SDS011;38258;51.148;14.068;2023-08-01T06:10:46;7.78;;;5.40;;
52318;SDS011;38258;51.148;14.068;2023-08-01T06:13:13;9.45;;;6.10;;
52318;SDS011;38258;51.148;14.068;2023-08-01T06:15:40;7.20;;;5.20;;
52318;SDS011;38258;51.148;14.068;2023-08-01T06:18:07;10.10;;;5.85;;
52318;SDS011;38258;51.148;14.068;2023-08-01T06:20:34;8.50;;;5.25;;
52318;SDS011;38258;51.148;14.068;2023-08-01T06:23:00;8.68;;;5.28;;
52318;SDS011;38258;51.148;14.068;2023-08-01T06:25:27;8.10;;;5.80;;
52318;SDS011;38258;51.148;14.068;2023-08-01T06:27:55;8.55;;;5.40;;
52318;SDS011;38258;51.148;14.068;2023-08-01T06:30:22;9.48;;;5.50;;
52318;SDS011;38258;51.148;14.068;2023-08-01T06:32:49;9.13;;;5.10;;
52318;SDS011;38258;51.148;14.068;2023-08-01T06:35:16;9.02;;;4.85;;
52318;SDS011;38258;51.148;14.068;2023-08-01T06:37:43;8.30;;;5.78;;
52318;SDS011;38258;51.148;14.068;2023-08-01T06:40:10;7.18;;;5.65;;
52318;SDS011;38258;51.148;14.068;2023-08-01T06:42:37;7.97;;;5.35;;
52318;SDS011;38258;51.148;14.068;2023-08-01T06:45:05;8.27;;;5.57;;
52318;SDS011;38258;51.148;14.068;2023-08-01T06:47:32;7.05;;;4.85;;
52318;SDS011;38258;51.148;14.068;2023-08-01T06:49:59;8.05;;;5.13;;
52318;SDS011;38258;51.148;14.068;2023-08-01T06:52:26;8.88;;;4.95;;
52318;SDS011;38258;51.148;14.068;2023-08-01T06:54:53;7.90;;;5.32;;
52318;SDS011;38258;51.148;14.068;2023-08-01T06:57:19;8.23;;;5.50;;
52318;SDS011;38258;51.148;14.068;2023-08-01T06:59:46;6.55;;;4.63;;
52318;SDS011;38258;51.148;14.068;2023-08-01T07:02:14;6.80;;;4.60;;
52318;SDS011;38258;51.148;14.068;2023-08-01T07:04:41;7.38;;;5.18;;
52318;SDS011;38258;51.148;14.068;2023-08-01T07:07:08;6.47;;;4.53;;
52318;SDS011;38258;51.148;14.068;2023-08-01T07:09:35;6.18;;;4.00;;
52318;SDS011;38258;51.148;14.068;2023-08-01T07:12:03;6.05;;;4.22;;
52318;SDS011;38258;51.148;14.068;2023-08-01T07:14:30;6.82;;;4.30;;
52318;SDS011;38258;51.148;14.068;2023-08-01T07:16:57;7.60;;;4.95;;
52318;SDS011;38258;51.148;14.068;2023-08-01T07:19:26;7.28;;;4.50;;
52318;SDS011;38258;51.148;14.068;2023-08-01T07:21:52;7.28;;;4.90;;
52318;SDS011;38258;51.148;14.068;2023-08-01T07:24:19;5.63;;;4.10;;
52318;SDS011;38258;51.148;14.068;2023-08-01T07:26:46;7.22;;;4.25;;
52318;SDS011;38258;51.148;14.068;2023-08-01T07:29:12;6.63;;;4.47;;
52318;SDS011;38258;51.148;14.068;2023-08-01T07:31:42;6.75;;;4.45;;
52318;SDS011;38258;51.148;14.068;2023-08-01T07:34:09;7.28;;;4.60;;
52318;SDS011;38258;51.148;14.068;2023-08-01T07:36:37;6.10;;;4.28;;
52318;SDS011;38258;51.148;14.068;2023-08-01T07:39:03;6.68;;;4.63;;
52318;SDS011;38258;51.148;14.068;2023-08-01T07:41:30;7.93;;;5.00;;
52318;SDS011;38258;51.148;14.068;2023-08-01T07:43:58;7.32;;;4.68;;
52318;SDS011;38258;51.148;14.068;2023-08-01T07:46:25;7.63;;;4.80;;
52318;SDS011;38258;51.148;14.068;2023-08-01T07:48:51;6.80;;;4.57;;
52318;SDS011;38258;51.148;14.068;2023-08-01T07:51:19;8.75;;;4.90;;
52318;SDS011;38258;51.148;14.068;2023-08-01T07:53:47;7.72;;;5.10;;
52318;SDS011;38258;51.148;14.068;2023-08-01T07:56:14;7.32;;;4.90;;
52318;SDS011;38258;51.148;14.068;2023-08-01T07:58:41;7.28;;;5.03;;
52318;SDS011;38258;51.148;14.068;2023-08-01T08:01:08;7.97;;;5.20;;
52318;SDS011;38258;51.148;14.068;2023-08-01T08:03:34;9.52;;;5.47;;
52318;SDS011;38258;51.148;14.068;2023-08-01T08:06:01;8.52;;;5.40;;
52318;SDS011;38258;51.148;14.068;2023-08-01T08:08:29;7.68;;;5.35;;
52318;SDS011;38258;51.148;14.068;2023-08-01T08:10:58;7.13;;;5.15;;
52318;SDS011;38258;51.148;14.068;2023-08-01T08:13:26;8.20;;;5.50;;
52318;SDS011;38258;51.148;14.068;2023-08-01T08:15:54;8.77;;;5.40;;
52318;SDS011;38258;51.148;14.068;2023-08-01T08:18:21;7.28;;;5.28;;
52318;SDS011;38258;51.148;14.068;2023-08-01T08:20:48;7.70;;;5.47;;
52318;SDS011;38258;51.148;14.068;2023-08-01T08:23:15;7.90;;;5.05;;
52318;SDS011;38258;51.148;14.068;2023-08-01T08:25:43;6.45;;;4.30;;
52318;SDS011;38258;51.148;14.068;2023-08-01T08:28:13;6.03;;;4.55;;
52318;SDS011;38258;51.148;14.068;2023-08-01T08:30:40;5.85;;;3.70;;
52318;SDS011;38258;51.148;14.068;2023-08-01T08:33:07;5.50;;;3.17;;
52318;SDS011;38258;51.148;14.068;2023-08-01T08:35:35;4.50;;;3.03;;
52318;SDS011;38258;51.148;14.068;2023-08-01T08:38:02;4.88;;;3.08;;
52318;SDS011;38258;51.148;14.068;2023-08-01T08:40:31;2.60;;;1.67;;
52318;SDS011;38258;51.148;14.068;2023-08-01T08:42:59;3.22;;;1.40;;
52318;SDS011;38258;51.148;14.068;2023-08-01T08:45:29;2.55;;;1.40;;
52318;SDS011;38258;51.148;14.068;2023-08-01T08:48:00;1.80;;;1.33;;
52318;SDS011;38258;51.148;14.068;2023-08-01T08:50:29;3.63;;;1.23;;
52318;SDS011;38258;51.148;14.068;2023-08-01T08:52:57;1.83;;;1.30;;
52318;SDS011;38258;51.148;14.068;2023-08-01T08:55:25;2.30;;;1.00;;
52318;SDS011;38258;51.148;14.068;2023-08-01T08:57:52;1.85;;;1.10;;
52318;SDS011;38258;51.148;14.068;2023-08-01T09:00:20;2.00;;;1.20;;
52318;SDS011;38258;51.148;14.068;2023-08-01T09:02:49;2.85;;;1.20;;
52318;SDS011;38258;51.148;14.068;2023-08-01T09:05:16;1.63;;;1.20;;
52318;SDS011;38258;51.148;14.068;2023-08-01T09:07:43;1.27;;;1.08;;
52318;SDS011;38258;51.148;14.068;2023-08-01T09:10:16;2.05;;;1.00;;
52318;SDS011;38258;51.148;14.068;2023-08-01T09:12:43;1.50;;;1.00;;
52318;SDS011;38258;51.148;14.068;2023-08-01T09:15:09;1.98;;;1.10;;
52318;SDS011;38258;51.148;14.068;2023-08-01T09:17:46;1.85;;;1.08;;
52318;SDS011;38258;51.148;14.068;2023-08-01T09:20:15;1.05;;;0.90;;
52318;SDS011;38258;51.148;14.068;2023-08-01T09:22:42;1.08;;;0.90;;
52318;SDS011;38258;51.148;14.068;2023-08-01T09:25:10;1.98;;;0.90;;
52318;SDS011;38258;51.148;14.068;2023-08-01T09:27:37;0.98;;;0.88;;
52318;SDS011;38258;51.148;14.068;2023-08-01T09:30:08;2.42;;;0.98;;
52318;SDS011;38258;51.148;14.068;2023-08-01T09:32:36;1.27;;;0.85;;
52318;SDS011;38258;51.148;14.068;2023-08-01T09:35:05;1.25;;;1.00;;
52318;SDS011;38258;51.148;14.068;2023-08-01T09:37:38;1.88;;;1.13;;
52318;SDS011;38258;51.148;14.068;2023-08-01T09:40:07;1.58;;;1.23;;
52318;SDS011;38258;51.148;14.068;2023-08-01T09:42:37;1.55;;;0.90;;
52318;SDS011;38258;51.148;14.068;2023-08-01T09:45:06;1.73;;;1.00;;
52318;SDS011;38258;51.148;14.068;2023-08-01T09:47:38;2.05;;;0.90;;
52318;SDS011;38258;51.148;14.068;2023-08-01T09:50:06;1.30;;;0.80;;
52318;SDS011;38258;51.148;14.068;2023-08-01T09:52:35;1.10;;;0.80;;
52318;SDS011;38258;51.148;14.068;2023-08-01T09:55:02;2.08;;;0.80;;
52318;SDS011;38258;51.148;14.068;2023-08-01T09:57:29;1.17;;;0.90;;
52318;SDS011;38258;51.148;14.068;2023-08-01T09:59:57;1.20;;;0.68;;
52318;SDS011;38258;51.148;14.068;2023-08-01T10:02:25;0.70;;;0.70;;
52318;SDS011;38258;51.148;14.068;2023-08-01T10:04:57;0.70;;;0.70;;
52318;SDS011;38258;51.148;14.068;2023-08-01T10:07:26;2.08;;;0.80;;
52318;SDS011;38258;51.148;14.068;2023-08-01T10:09:58;1.83;;;0.90;;
52318;SDS011;38258;51.148;14.068;2023-08-01T10:12:25;0.82;;;0.80;;
52318;SDS011;38258;51.148;14.068;2023-08-01T10:14:53;1.02;;;0.82;;
52318;SDS011;38258;51.148;14.068;2023-08-01T10:17:21;1.25;;;0.80;;
52318;SDS011;38258;51.148;14.068;2023-08-01T10:19:48;0.80;;;0.70;;
52318;SDS011;38258;51.148;14.068;2023-08-01T10:22:15;0.90;;;0.80;;
52318;SDS011;38258;51.148;14.068;2023-08-01T10:24:44;1.00;;;0.70;;
52318;SDS011;38258;51.148;14.068;2023-08-01T10:27:12;1.50;;;0.80;;
52318;SDS011;38258;51.148;14.068;2023-08-01T10:29:39;2.13;;;0.90;;
52318;SDS011;38258;51.148;14.068;2023-08-01T10:32:06;1.55;;;0.85;;
52318;SDS011;38258;51.148;14.068;2023-08-01T10:34:34;0.85;;;0.80;;
52318;SDS011;38258;51.148;14.068;2023-08-01T10:37:01;1.42;;;0.80;;
52318;SDS011;38258;51.148;14.068;2023-08-01T10:39:28;0.85;;;0.80;;
52318;SDS011;38258;51.148;14.068;2023-08-01T10:41:59;1.15;;;0.70;;
52318;SDS011;38258;51.148;14.068;2023-08-01T10:44:28;0.65;;;0.65;;
52318;SDS011;38258;51.148;14.068;2023-08-01T10:46:58;3.40;;;0.85;;
52318;SDS011;38258;51.148;14.068;2023-08-01T10:49:33;1.75;;;0.80;;
52318;SDS011;38258;51.148;14.068;2023-08-01T10:52:03;1.52;;;1.20;;
52318;SDS011;38258;51.148;14.068;2023-08-01T10:54:41;1.38;;;1.20;;
52318;SDS011;38258;51.148;14.068;2023-08-01T10:57:09;0.77;;;0.75;;
52318;SDS011;38258;51.148;14.068;2023-08-01T10:59:41;2.00;;;1.05;;
52318;SDS011;38258;51.148;14.068;2023-08-01T11:02:09;1.30;;;0.95;;
52318;SDS011;38258;51.148;14.068;2023-08-01T11:04:35;1.20;;;0.85;;
52318;SDS011;38258;51.148;14.068;2023-08-01T11:07:03;3.40;;;1.00;;
52318;SDS011;38258;51.148;14.068;2023-08-01T11:09:31;2.00;;;1.20;;
52318;SDS011;38258;51.148;14.068;2023-08-01T11:11:58;1.52;;;1.10;;
52318;SDS011;38258;51.148;14.068;2023-08-01T11:14:28;1.98;;;0.77;;
52318;SDS011;38258;51.148;14.068;2023-08-01T11:16:55;1.52;;;0.95;;
52318;SDS011;38258;51.148;14.068;2023-08-01T11:19:23;1.25;;;0.90;;
52318;SDS011;38258;51.148;14.068;2023-08-01T11:21:51;1.48;;;0.98;;
52318;SDS011;38258;51.148;14.068;2023-08-01T11:24:20;1.45;;;0.90;;
52318;SDS011;38258;51.148;14.068;2023-08-01T11:26:50;2.20;;;1.17;;
52318;SDS011;38258;51.148;14.068;2023-08-01T11:29:22;0.82;;;0.80;;
52318;SDS011;38258;51.148;14.068;2023-08-01T11:31:54;0.90;;;0.80;;
52318;SDS011;38258;51.148;14.068;2023-08-01T11:34:21;3.90;;;1.95;;
52318;SDS011;38258;51.148;14.068;2023-08-01T11:36:48;1.90;;;0.90;;
52318;SDS011;38258;51.148;14.068;2023-08-01T11:39:15;0.82;;;0.70;;
52318;SDS011;38258;51.148;14.068;2023-08-01T11:41:43;0.95;;;0.80;;
52318;SDS011;38258;51.148;14.068;2023-08-01T11:44:10;1.27;;;0.90;;
52318;SDS011;38258;51.148;14.068;2023-08-01T11:46:38;3.55;;;1.00;;
52318;SDS011;38258;51.148;14.068;2023-08-01T11:49:07;0.77;;;0.77;;
52318;SDS011;38258;51.148;14.068;2023-08-01T11:51:41;1.45;;;0.90;;
52318;SDS011;38258;51.148;14.068;2023-08-01T11:54:08;1.27;;;1.13;;
52318;SDS011;38258;51.148;14.068;2023-08-01T11:56:36;0.80;;;0.77;;
52318;SDS011;38258;51.148;14.068;2023-08-01T11:59:10;2.03;;;0.80;;
52318;SDS011;38258;51.148;14.068;2023-08-01T12:01:38;1.50;;;0.70;;
52318;SDS011;38258;51.148;14.068;2023-08-01T12:04:05;1.77;;;0.90;;
52318;SDS011;38258;51.148;14.068;2023-08-01T12:06:34;1.58;;;0.93;;
52318;SDS011;38258;51.148;14.068;2023-08-01T12:09:05;0.90;;;0.80;;
52318;SDS011;38258;51.148;14.068;2023-08-01T12:11:37;1.23;;;0.90;;
52318;SDS011;38258;51.148;14.068;2023-08-01T12:14:06;1.58;;;1.08;;
52318;SDS011;38258;51.148;14.068;2023-08-01T12:16:35;2.67;;;1.20;;
52318;SDS011;38258;51.148;14.068;2023-08-01T12:19:02;1.55;;;1.20;;
52318;SDS011;38258;51.148;14.068;2023-08-01T12:21:31;1.45;;;1.10;;
52318;SDS011;38258;51.148;14.068;2023-08-01T12:23:59;2.72;;;1.58;;
52318;SDS011;38258;51.148;14.068;2023-08-01T12:26:26;2.50;;;1.80;;
52318;SDS011;38258;51.148;14.068;2023-08-01T12:28:53;2.08;;;1.20;;
52318;SDS011;38258;51.148;14.068;2023-08-01T12:31:20;2.10;;;1.38;;
52318;SDS011;38258;51.148;14.068;2023-08-01T12:33:48;1.73;;;1.30;;
52318;SDS011;38258;51.148;14.068;2023-08-01T12:36:15;1.75;;;1.10;;
52318;SDS011;38258;51.148;14.068;2023-08-01T12:38:43;1.83;;;1.15;;
52318;SDS011;38258;51.148;14.068;2023-08-01T12:41:10;1.83;;;1.20;;
52318;SDS011;38258;51.148;14.068;2023-08-01T12:43:37;1.50;;;1.20;;
52318;SDS011;38258;51.148;14.068;2023-08-01T12:46:04;2.35;;;1.30;;
52318;SDS011;38258;51.148;14.068;2023-08-01T12:48:31;1.60;;;1.20;;
52318;SDS011;38258;51.148;14.068;2023-08-01T12:50:57;1.40;;;1.00;;
52318;SDS011;38258;51.148;14.068;2023-08-01T12:53:24;1.33;;;0.90;;
52318;SDS011;38258;51.148;14.068;2023-08-01T12:55:57;1.80;;;0.80;;
52318;SDS011;38258;51.148;14.068;2023-08-01T12:58:24;1.60;;;1.00;;
52318;SDS011;38258;51.148;14.068;2023-08-01T13:00:51;2.00;;;1.10;;
52318;SDS011;38258;51.148;14.068;2023-08-01T13:03:18;1.45;;;0.90;;
52318;SDS011;38258;51.148;14.068;2023-08-01T13:05:45;3.00;;;1.20;;
52318;SDS011;38258;51.148;14.068;2023-08-01T13:08:12;1.95;;;1.10;;
52318;SDS011;38258;51.148;14.068;2023-08-01T13:10:39;1.60;;;0.90;;
52318;SDS011;38258;51.148;14.068;2023-08-01T13:13:07;1.83;;;1.20;;
52318;SDS011;38258;51.148;14.068;2023-08-01T13:15:34;1.63;;;1.00;;
52318;SDS011;38258;51.148;14.068;2023-08-01T13:18:00;1.85;;;0.90;;
52318;SDS011;38258;51.148;14.068;2023-08-01T13:20:27;1.92;;;1.00;;
52318;SDS011;38258;51.148;14.068;2023-08-01T13:22:54;1.85;;;1.15;;
52318;SDS011;38258;51.148;14.068;2023-08-01T13:25:20;2.63;;;1.25;;
52318;SDS011;38258;51.148;14.068;2023-08-01T13:27:47;3.45;;;1.50;;
52318;SDS011;38258;51.148;14.068;2023-08-01T13:30:15;1.95;;;1.40;;
52318;SDS011;38258;51.148;14.068;2023-08-01T13:32:43;2.25;;;1.10;;
52318;SDS011;38258;51.148;14.068;2023-08-01T13:35:11;1.63;;;1.08;;
52318;SDS011;38258;51.148;14.068;2023-08-01T13:37:37;2.00;;;1.30;;
52318;SDS011;38258;51.148;14.068;2023-08-01T13:40:05;1.67;;;1.20;;
52318;SDS011;38258;51.148;14.068;2023-08-01T13:42:32;1.23;;;1.08;;
52318;SDS011;38258;51.148;14.068;2023-08-01T13:44:59;2.25;;;1.10;;
52318;SDS011;38258;51.148;14.068;2023-08-01T13:47:27;1.70;;;1.00;;
52318;SDS011;38258;51.148;14.068;2023-08-01T13:49:54;1.50;;;1.10;;
52318;SDS011;38258;51.148;14.068;2023-08-01T13:52:20;2.10;;;1.27;;
52318;SDS011;38258;51.148;14.068;2023-08-01T13:54:47;1.63;;;1.00;;
52318;SDS011;38258;51.148;14.068;2023-08-01T13:57:14;2.10;;;1.35;;
52318;SDS011;38258;51.148;14.068;2023-08-01T13:59:41;2.40;;;1.40;;
52318;SDS011;38258;51.148;14.068;2023-08-01T14:02:08;2.92;;;1.60;;
52318;SDS011;38258;51.148;14.068;2023-08-01T14:04:36;1.83;;;1.40;;
52318;SDS011;38258;51.148;14.068;2023-08-01T14:07:03;2.15;;;1.58;;
52318;SDS011;38258;51.148;14.068;2023-08-01T14:09:30;2.15;;;1.60;;
52318;SDS011;38258;51.148;14.068;2023-08-01T14:11:57;2.00;;;1.40;;
52318;SDS011;38258;51.148;14.068;2023-08-01T14:14:24;4.82;;;1.80;;
52318;SDS011;38258;51.148;14.068;2023-08-01T14:16:51;2.80;;;1.83;;
52318;SDS011;38258;51.148;14.068;2023-08-01T14:19:17;2.58;;;1.67;;
52318;SDS011;38258;51.148;14.068;2023-08-01T14:21:45;2.60;;;1.80;;
52318;SDS011;38258;51.148;14.068;2023-08-01T14:24:12;3.60;;;2.10;;
52318;SDS011;38258;51.148;14.068;2023-08-01T14:26:39;2.92;;;1.75;;
52318;SDS011;38258;51.148;14.068;2023-08-01T14:29:06;2.22;;;1.63;;
52318;SDS011;38258;51.148;14.068;2023-08-01T14:31:33;2.35;;;1.75;;
52318;SDS011;38258;51.148;14.068;2023-08-01T14:33:59;2.65;;;1.92;;
52318;SDS011;38258;51.148;14.068;2023-08-01T14:36:26;2.75;;;1.85;;